Terminal Aerodrome Forecast
Issued by NWS Chicago, IL

Home | Current Version | Previous Version | Graphics & Text | Print | Product List | Glossary On
Versions: 1 2 3 4 5 6 7 8 9 10 11 12 13 14 15 16 17 18 19 20 21 22 23 24 25 26 27 28 29 30 31 32 33 34
000
FTUS43 KLOT 240520
TAFRFD
TAF
KRFD 240520Z 2406/2506 00000KT P6SM SKC
     FM241500 14008KT P6SM BKN070
     FM242000 11011KT P6SM OVC060
     FM250300 10013KT P6SM VCSH OVC040=

USA.gov is the U.S. government's official web portal to all federal, state and local government web resources and services.